createdAt,value
2018-06-12T00:00:12.794Z,15.60
2018-06-12T00:02:41.758Z,15.50
2018-06-12T00:05:10.688Z,15.50
2018-06-12T00:07:39.730Z,15.40
2018-06-12T00:10:08.688Z,15.30
2018-06-12T00:12:37.650Z,15.30
2018-06-12T00:15:06.558Z,15.20
2018-06-12T00:17:35.446Z,15.20
2018-06-12T00:20:04.448Z,15.10
2018-06-12T00:22:33.392Z,15.10
2018-06-12T00:25:02.330Z,15.10
2018-06-12T00:27:31.231Z,15.00
2018-06-12T00:30:00.179Z,15.00
2018-06-12T00:32:29.126Z,14.90
2018-06-12T00:34:58.067Z,14.90
2018-06-12T00:37:27.065Z,14.90
2018-06-12T00:39:56.085Z,14.90
2018-06-12T00:42:25.094Z,14.90
2018-06-12T00:44:54.049Z,14.90
2018-06-12T00:47:23.088Z,14.90
2018-06-12T00:49:52.038Z,14.90
2018-06-12T00:52:21.220Z,14.90
2018-06-12T00:54:50.258Z,14.90
2018-06-12T00:57:19.283Z,14.90
2018-06-12T00:59:48.246Z,14.90
2018-06-12T01:02:17.204Z,14.90
2018-06-12T01:04:46.147Z,14.80
2018-06-12T01:07:15.077Z,14.80
2018-06-12T01:09:44.035Z,14.80
2018-06-12T01:12:12.973Z,14.80
2018-06-12T01:14:41.954Z,14.80
2018-06-12T01:17:10.862Z,14.70
2018-06-12T01:22:08.488Z,14.70
2018-06-12T01:24:37.424Z,14.70
2018-06-12T01:29:35.284Z,14.70
2018-06-12T01:32:04.257Z,14.70
2018-06-12T01:34:33.297Z,14.70
2018-06-12T01:37:02.229Z,14.60
2018-06-12T01:39:31.411Z,14.60
2018-06-12T01:42:00.381Z,14.60
2018-06-12T01:44:29.392Z,14.60
2018-06-12T01:46:58.340Z,14.60
2018-06-12T01:49:27.665Z,14.60
2018-06-12T01:51:56.667Z,14.50
2018-06-12T01:54:25.600Z,14.50
2018-06-12T01:56:54.597Z,14.60
2018-06-12T01:59:23.556Z,14.50
2018-06-12T02:01:52.589Z,14.50
2018-06-12T02:04:21.580Z,14.40
2018-06-12T02:06:50.589Z,14.40
2018-06-12T02:09:19.535Z,14.40
2018-06-12T02:11:48.965Z,14.30
2018-06-12T02:14:17.904Z,14.30
2018-06-12T02:16:46.841Z,14.30
2018-06-12T02:19:15.779Z,14.30
2018-06-12T02:21:44.762Z,14.30
2018-06-12T02:24:13.716Z,14.20
2018-06-12T02:26:42.838Z,14.10
2018-06-12T02:29:12.174Z,14.10
2018-06-12T02:31:41.325Z,14.10
2018-06-12T02:34:10.349Z,14.10
2018-06-12T02:36:39.361Z,14.00
2018-06-12T02:39:08.945Z,14.00
2018-06-12T02:41:37.962Z,14.00
2018-06-12T02:44:07.059Z,14.00
2018-06-12T02:46:36.289Z,13.90
2018-06-12T02:49:05.285Z,13.90
2018-06-12T02:51:34.249Z,13.90
2018-06-12T02:54:03.251Z,13.90
2018-06-12T02:56:32.211Z,13.80
2018-06-12T02:59:01.150Z,13.90
2018-06-12T03:01:30.130Z,13.80
2018-06-12T03:03:59.263Z,13.80
2018-06-12T03:08:56.809Z,13.90
2018-06-12T03:11:25.814Z,13.80
2018-06-12T03:13:54.778Z,13.80
2018-06-12T03:16:23.739Z,13.80
2018-06-12T03:18:52.755Z,13.80
2018-06-12T03:21:21.717Z,13.80
2018-06-12T03:23:50.989Z,13.80
2018-06-12T03:26:20.003Z,13.80
2018-06-12T03:28:48.954Z,13.80
2018-06-12T03:31:17.957Z,13.80
2018-06-12T03:33:46.876Z,13.80
2018-06-12T03:36:15.845Z,13.80
2018-06-12T03:38:45.013Z,13.90
2018-06-12T03:41:13.956Z,13.80
2018-06-12T03:43:42.908Z,13.80
2018-06-12T03:46:11.925Z,13.90
2018-06-12T03:48:40.891Z,13.80
2018-06-12T03:51:09.819Z,13.90
2018-06-12T03:53:38.775Z,13.90
2018-06-12T03:56:07.765Z,13.90
2018-06-12T03:58:36.829Z,13.90
2018-06-12T04:01:05.785Z,13.90
2018-06-12T04:03:34.730Z,13.80
2018-06-12T04:06:03.713Z,13.80
2018-06-12T04:08:32.680Z,13.90
2018-06-12T04:11:01.811Z,13.90
2018-06-12T04:13:30.745Z,13.90
2018-06-12T04:15:59.666Z,13.90
2018-06-12T04:18:28.625Z,13.90
2018-06-12T04:20:57.583Z,13.90
2018-06-12T04:23:26.750Z,13.90
2018-06-12T04:25:55.758Z,13.90
2018-06-12T04:28:24.733Z,13.90
2018-06-12T04:30:53.665Z,14.00
2018-06-12T04:33:22.633Z,14.00
2018-06-12T04:35:51.605Z,14.00
2018-06-12T04:38:20.582Z,14.10
2018-06-12T04:43:18.208Z,14.10
2018-06-12T04:45:47.136Z,14.10
2018-06-12T04:48:16.646Z,14.10
2018-06-12T04:50:45.681Z,14.20
2018-06-12T04:53:14.796Z,14.20
2018-06-12T04:55:43.810Z,14.20
2018-06-12T04:58:12.787Z,14.30
2018-06-12T05:00:41.780Z,14.40
2018-06-12T05:03:10.750Z,14.30
2018-06-12T05:05:39.709Z,14.40
2018-06-12T05:10:37.330Z,14.40
2018-06-12T05:13:06.261Z,14.50
2018-06-12T05:15:35.248Z,14.50
2018-06-12T05:18:04.423Z,14.50
2018-06-12T05:20:33.399Z,14.50
2018-06-12T05:23:02.325Z,14.50
2018-06-12T05:25:31.361Z,14.60
2018-06-12T05:28:00.276Z,14.60
2018-06-12T05:30:29.209Z,14.70
2018-06-12T05:32:58.182Z,14.80
2018-06-12T05:35:27.159Z,14.80
2018-06-12T05:37:56.129Z,14.90
2018-06-12T05:40:25.042Z,14.90
2018-06-12T05:42:53.981Z,14.90
2018-06-12T05:45:22.937Z,14.90
2018-06-12T05:47:51.906Z,14.80
2018-06-12T05:50:20.865Z,14.80
2018-06-12T05:52:49.873Z,14.80
2018-06-12T05:55:18.894Z,14.90
2018-06-12T05:57:47.924Z,14.90
2018-06-12T06:00:16.872Z,14.90
2018-06-12T06:02:45.840Z,14.90
2018-06-12T06:05:14.765Z,15.00
2018-06-12T06:07:43.705Z,15.00
2018-06-12T06:10:12.661Z,15.10
2018-06-12T06:12:41.646Z,15.00
2018-06-12T06:15:10.591Z,15.00
2018-06-12T06:17:39.537Z,15.00
2018-06-12T06:20:08.498Z,15.00
2018-06-12T06:22:37.486Z,15.00
2018-06-12T06:25:06.493Z,15.10
2018-06-12T06:27:35.478Z,15.20
2018-06-12T06:30:04.647Z,15.30
2018-06-12T06:32:33.654Z,15.40
2018-06-12T06:35:02.590Z,15.60
2018-06-12T06:37:31.741Z,15.70
2018-06-12T06:40:00.674Z,15.90
2018-06-12T06:42:29.673Z,16.10
2018-06-12T06:44:58.663Z,16.20
2018-06-12T06:47:27.588Z,16.10
2018-06-12T06:49:56.508Z,16.10
2018-06-12T06:52:25.467Z,16.20
2018-06-12T06:54:54.621Z,16.30
2018-06-12T06:57:23.586Z,16.50
2018-06-12T06:59:52.535Z,16.70
2018-06-12T07:02:21.701Z,16.90
2018-06-12T07:04:50.608Z,17.00
2018-06-12T07:07:19.586Z,17.10
2018-06-12T07:09:48.517Z,17.20
2018-06-12T07:12:17.537Z,17.30
2018-06-12T07:14:46.842Z,17.40
2018-06-12T07:17:16.233Z,17.50
2018-06-12T07:19:45.189Z,17.70
2018-06-12T07:22:14.149Z,17.90
2018-06-12T07:24:43.144Z,17.90
2018-06-12T07:27:12.102Z,18.00
2018-06-12T07:29:41.041Z,17.90
2018-06-12T07:32:09.970Z,18.10
2018-06-12T07:34:38.950Z,18.20
2018-06-12T07:37:07.894Z,18.30
2018-06-12T07:39:37.282Z,18.10
2018-06-12T07:42:06.216Z,17.80
2018-06-12T07:44:35.181Z,17.90
2018-06-12T07:47:05.159Z,18.00
2018-06-12T07:49:34.087Z,17.90
2018-06-12T07:52:03.149Z,18.10
2018-06-12T07:54:32.088Z,18.00
2018-06-12T07:57:01.110Z,18.10
2018-06-12T07:59:30.062Z,18.00
2018-06-12T08:01:59.334Z,17.90
2018-06-12T08:04:28.316Z,17.90
2018-06-12T08:06:57.309Z,18.10
2018-06-12T08:09:26.238Z,18.10
2018-06-12T08:11:55.170Z,18.00
2018-06-12T08:14:24.132Z,17.90
2018-06-12T08:16:53.076Z,18.10
2018-06-12T08:19:22.021Z,18.20
2018-06-12T08:21:51.613Z,18.50
2018-06-12T08:24:20.649Z,18.40
2018-06-12T08:26:49.590Z,18.30
2018-06-12T08:29:18.530Z,18.50
2018-06-12T08:31:48.748Z,18.80
2018-06-12T08:34:17.982Z,19.00
2018-06-12T08:36:48.025Z,19.30
2018-06-12T08:39:17.121Z,19.30
2018-06-12T08:41:46.101Z,19.20
2018-06-12T08:44:15.043Z,19.40
2018-06-12T08:46:44.018Z,19.30
2018-06-12T08:49:13.162Z,19.00
2018-06-12T08:51:42.125Z,19.00
2018-06-12T08:54:11.101Z,19.00
2018-06-12T08:56:40.209Z,18.90
2018-06-12T08:59:09.203Z,19.10
2018-06-12T09:01:38.437Z,19.10
2018-06-12T09:04:07.418Z,19.50
2018-06-12T09:06:36.358Z,20.00
2018-06-12T09:09:06.569Z,20.70
2018-06-12T09:11:35.553Z,21.10
2018-06-12T09:14:04.534Z,21.50
2018-06-12T09:16:33.474Z,21.70
2018-06-12T09:19:02.578Z,21.70
2018-06-12T09:21:31.519Z,21.10
2018-06-12T09:24:00.457Z,20.80
2018-06-12T09:28:58.025Z,21.00
2018-06-12T09:31:26.994Z,21.10
2018-06-12T09:33:55.983Z,21.30
2018-06-12T09:36:30.341Z,21.50
2018-06-12T09:38:59.289Z,21.50
2018-06-12T09:41:29.150Z,21.50
2018-06-12T09:43:58.094Z,21.40
2018-06-12T09:48:55.662Z,21.20
2018-06-12T09:51:24.685Z,20.80
2018-06-12T09:53:53.653Z,20.70
2018-06-12T09:56:22.614Z,20.70
2018-06-12T09:58:51.679Z,20.80
2018-06-12T10:03:52.009Z,20.50
2018-06-12T10:06:20.975Z,20.20
2018-06-12T10:08:49.922Z,19.90
2018-06-12T10:11:18.868Z,19.70
2018-06-12T10:13:47.810Z,19.70
2018-06-12T10:16:16.750Z,19.60
2018-06-12T10:18:45.745Z,19.80
2018-06-12T10:21:14.685Z,20.10
2018-06-12T10:23:44.229Z,20.20
2018-06-12T10:26:13.157Z,20.50
2018-06-12T10:28:42.173Z,20.90
2018-06-12T10:31:11.177Z,21.20
2018-06-12T10:33:40.094Z,21.40
2018-06-12T10:36:09.086Z,21.30
2018-06-12T10:41:06.698Z,21.40
2018-06-12T10:43:35.724Z,21.00
2018-06-12T10:46:04.613Z,20.90
2018-06-12T10:48:33.549Z,21.00
2018-06-12T10:51:02.638Z,20.70
2018-06-12T10:53:31.580Z,20.70
2018-06-12T10:56:00.521Z,20.70
2018-06-12T10:58:29.565Z,20.90
2018-06-12T11:00:58.537Z,21.10
2018-06-12T11:03:27.525Z,21.00
2018-06-12T11:08:25.913Z,20.90
2018-06-12T11:10:54.893Z,21.10
2018-06-12T11:13:23.977Z,21.10
2018-06-12T11:15:52.993Z,21.20
2018-06-12T11:18:21.988Z,21.30
2018-06-12T11:20:51.035Z,21.10
2018-06-12T11:23:20.055Z,21.20
2018-06-12T11:25:48.995Z,21.40
2018-06-12T11:28:17.930Z,21.40
2018-06-12T11:30:46.913Z,21.30
2018-06-12T11:33:15.878Z,21.30
2018-06-12T11:35:44.857Z,21.20
2018-06-12T11:38:13.830Z,21.20
2018-06-12T11:40:42.772Z,21.10
2018-06-12T11:45:40.529Z,20.90
2018-06-12T11:48:09.526Z,20.90
2018-06-12T11:50:38.509Z,20.90
2018-06-12T11:53:07.466Z,20.90
2018-06-12T11:55:36.427Z,20.70
2018-06-12T11:58:05.554Z,20.70
2018-06-12T12:00:34.549Z,20.80
2018-06-12T12:03:03.745Z,20.90
2018-06-12T12:05:32.749Z,20.90
2018-06-12T12:08:01.732Z,21.00
2018-06-12T12:10:30.689Z,21.00
2018-06-12T12:12:59.724Z,21.10
2018-06-12T12:15:28.671Z,21.30
2018-06-12T12:17:57.693Z,21.40
2018-06-12T12:20:26.672Z,21.60
2018-06-12T12:22:55.721Z,21.50
2018-06-12T12:25:24.782Z,21.50
2018-06-12T12:27:53.816Z,21.50
2018-06-12T12:30:22.910Z,21.30
2018-06-12T12:32:51.863Z,21.20
2018-06-12T12:35:20.827Z,21.10
2018-06-12T12:37:49.788Z,21.10
2018-06-12T12:40:18.867Z,21.20
2018-06-12T12:45:16.668Z,21.00
2018-06-12T12:47:45.628Z,21.10
2018-06-12T12:52:43.324Z,20.90
2018-06-12T12:55:12.378Z,21.00
2018-06-12T13:00:09.978Z,20.90
2018-06-12T13:02:39.117Z,20.90
2018-06-12T13:05:08.134Z,20.80
2018-06-12T13:07:37.113Z,21.00
2018-06-12T13:10:06.161Z,21.10
2018-06-12T13:12:35.206Z,21.10
2018-06-12T13:15:04.225Z,21.20
2018-06-12T13:17:34.041Z,21.30
2018-06-12T13:20:03.038Z,21.40
2018-06-12T13:25:00.659Z,21.50
2018-06-12T13:27:29.677Z,21.50
2018-06-12T13:29:58.655Z,21.40
2018-06-12T13:32:27.677Z,21.40
2018-06-12T13:34:56.667Z,21.40
2018-06-12T13:37:25.603Z,21.50
2018-06-12T13:39:54.661Z,21.70
2018-06-12T13:42:23.596Z,21.80
2018-06-12T13:44:52.565Z,21.80
2018-06-12T13:47:21.600Z,22.00
2018-06-12T13:49:50.560Z,22.10
2018-06-12T13:52:19.546Z,22.00
2018-06-12T13:54:48.557Z,22.00
2018-06-12T13:57:17.491Z,22.00
2018-06-12T13:59:46.437Z,22.00
2018-06-12T14:02:15.451Z,22.00
2018-06-12T14:04:44.477Z,22.00
2018-06-12T14:07:13.461Z,22.00
2018-06-12T14:09:42.429Z,22.10
2018-06-12T14:12:11.387Z,22.00
2018-06-12T14:14:40.428Z,22.00
2018-06-12T14:17:09.431Z,22.00
2018-06-12T14:19:38.427Z,22.10
2018-06-12T14:27:04.576Z,22.40
2018-06-12T14:29:33.796Z,22.50
2018-06-12T14:32:02.831Z,22.50
2018-06-12T14:34:32.821Z,22.50
2018-06-12T14:37:01.794Z,22.40
2018-06-12T14:39:31.517Z,22.30
2018-06-12T14:42:00.456Z,22.20
2018-06-12T14:44:29.433Z,22.10
2018-06-12T14:46:58.431Z,22.00
2018-06-12T14:49:27.581Z,22.00
2018-06-12T14:51:56.513Z,21.80
2018-06-12T14:54:25.510Z,21.70
2018-06-12T14:59:23.121Z,21.60
2018-06-12T15:01:52.146Z,21.70
2018-06-12T15:04:21.116Z,21.70
2018-06-12T15:06:50.175Z,21.80
2018-06-12T15:09:19.234Z,22.10
2018-06-12T15:11:48.564Z,22.20
2018-06-12T15:14:17.557Z,22.20
2018-06-12T15:16:46.535Z,22.30
2018-06-12T15:19:15.602Z,22.40
2018-06-12T15:21:44.686Z,22.20
2018-06-12T15:24:13.690Z,22.20
2018-06-12T15:26:43.053Z,22.10
2018-06-12T15:31:40.977Z,22.00
2018-06-12T15:34:09.966Z,21.90
2018-06-12T15:36:38.940Z,21.70
2018-06-12T15:39:08.286Z,21.60
2018-06-12T15:41:37.820Z,21.60
2018-06-12T15:44:07.066Z,21.50
2018-06-12T15:46:36.006Z,21.50
2018-06-12T15:51:35.456Z,21.20
2018-06-12T15:54:04.511Z,21.00
2018-06-12T15:56:33.598Z,20.80
2018-06-12T15:59:02.715Z,20.50
2018-06-12T16:01:31.827Z,20.50
2018-06-12T16:04:00.800Z,20.50
2018-06-12T16:06:30.725Z,20.40
2018-06-12T16:11:28.809Z,20.50
2018-06-12T16:13:57.849Z,20.50
2018-06-12T16:16:26.861Z,20.50
2018-06-12T16:18:55.834Z,20.40
2018-06-12T16:21:24.830Z,20.50
2018-06-12T16:23:53.813Z,20.50
2018-06-12T16:26:22.965Z,20.40
2018-06-12T16:28:51.950Z,20.40
2018-06-12T16:31:20.884Z,20.30
2018-06-12T16:33:49.853Z,20.20
2018-06-12T16:36:18.781Z,20.10
2018-06-12T16:38:47.724Z,20.10
2018-06-12T16:41:16.736Z,20.00
2018-06-12T16:43:45.654Z,19.90
2018-06-12T16:48:43.220Z,19.80
2018-06-12T16:51:12.174Z,19.80
2018-06-12T16:53:41.323Z,19.90
2018-06-12T16:56:10.385Z,19.90
2018-06-12T16:58:39.523Z,19.80
2018-06-12T17:01:08.441Z,19.90
2018-06-12T17:03:37.400Z,19.80
2018-06-12T17:06:06.422Z,19.80
2018-06-12T17:08:35.399Z,19.60
2018-06-12T17:11:04.581Z,19.60
2018-06-12T17:13:33.562Z,19.50
2018-06-12T17:16:02.525Z,19.40
2018-06-12T17:18:31.518Z,19.30
2018-06-12T17:21:00.507Z,19.30
2018-06-12T17:23:30.256Z,19.30
2018-06-12T17:25:59.193Z,19.20
2018-06-12T17:28:28.174Z,19.30
2018-06-12T17:30:57.346Z,19.20
2018-06-12T17:33:26.437Z,19.10
2018-06-12T17:35:55.393Z,19.10
2018-06-12T17:38:25.429Z,19.10
2018-06-12T17:40:54.442Z,19.00
2018-06-12T17:43:23.508Z,18.90
2018-06-12T17:45:52.523Z,18.80
2018-06-12T17:48:21.463Z,18.80
2018-06-12T17:50:50.453Z,18.70
2018-06-12T17:53:19.492Z,18.80
2018-06-12T17:55:48.550Z,18.80
2018-06-12T17:58:17.484Z,18.90
2018-06-12T18:00:46.447Z,18.80
2018-06-12T18:03:15.484Z,18.90
2018-06-12T18:05:44.465Z,18.80
2018-06-12T18:08:13.456Z,18.70
2018-06-12T18:10:42.753Z,18.70
2018-06-12T18:13:11.687Z,18.60
2018-06-12T18:15:40.673Z,18.50
2018-06-12T18:18:09.644Z,18.40
2018-06-12T18:20:38.601Z,18.30
2018-06-12T18:23:07.545Z,18.30
2018-06-12T18:25:36.561Z,18.20
2018-06-12T18:28:05.576Z,18.10
2018-06-12T18:30:34.928Z,17.90
2018-06-12T18:33:03.882Z,17.90
2018-06-12T18:35:33.061Z,17.70
2018-06-12T18:38:02.027Z,17.60
2018-06-12T18:40:31.010Z,17.60
2018-06-12T18:42:59.960Z,17.50
2018-06-12T18:45:28.941Z,17.50
2018-06-12T18:47:57.936Z,17.50
2018-06-12T18:50:26.993Z,17.40
2018-06-12T18:55:24.638Z,17.30
2018-06-12T18:57:53.581Z,17.30
2018-06-12T19:00:22.641Z,17.20
2018-06-12T19:02:52.468Z,17.10
2018-06-12T19:05:21.450Z,17.00
2018-06-12T19:07:50.432Z,17.00
2018-06-12T19:10:19.421Z,17.00
2018-06-12T19:12:48.437Z,17.00
2018-06-12T19:17:45.981Z,17.10
2018-06-12T19:20:15.345Z,17.00
2018-06-12T19:22:44.317Z,17.00
2018-06-12T19:25:13.329Z,16.90
2018-06-12T19:27:42.266Z,17.00
2018-06-12T19:30:11.193Z,17.00
2018-06-12T19:32:40.110Z,16.90
2018-06-12T19:35:09.057Z,16.90
2018-06-12T19:37:38.121Z,16.90
2018-06-12T19:40:07.093Z,16.80
2018-06-12T19:42:36.049Z,16.80
2018-06-12T19:45:05.057Z,16.70
2018-06-12T19:47:34.033Z,16.70
2018-06-12T19:50:03.227Z,16.60
2018-06-12T19:52:32.361Z,16.60
2018-06-12T19:55:01.299Z,16.60
2018-06-12T19:57:30.257Z,16.50
2018-06-12T19:59:59.209Z,16.50
2018-06-12T20:02:28.165Z,16.40
2018-06-12T20:04:57.106Z,16.40
2018-06-12T20:07:26.098Z,16.40
2018-06-12T20:09:55.139Z,16.40
2018-06-12T20:14:53.099Z,16.40
2018-06-12T20:17:22.133Z,16.40
2018-06-12T20:19:51.302Z,16.40
2018-06-12T20:22:20.288Z,16.40
2018-06-12T20:27:18.530Z,16.40
2018-06-12T20:29:47.598Z,16.40
2018-06-12T20:32:16.646Z,16.40
2018-06-12T20:34:45.750Z,16.40
2018-06-12T20:37:14.636Z,16.30
2018-06-12T20:39:43.585Z,16.30
2018-06-12T20:42:12.670Z,16.30
2018-06-12T20:44:41.617Z,16.30
2018-06-12T20:47:10.582Z,16.30
2018-06-12T20:49:39.531Z,16.30
2018-06-12T20:52:08.590Z,16.20
2018-06-12T20:54:37.529Z,16.20
2018-06-12T20:57:06.632Z,16.20
2018-06-12T20:59:35.570Z,16.10
2018-06-12T21:02:05.429Z,16.10
2018-06-12T21:04:34.453Z,16.10
2018-06-12T21:07:03.582Z,16.10
2018-06-12T21:09:32.389Z,16.10
2018-06-12T21:12:01.396Z,16.00
2018-06-12T21:14:30.355Z,16.00
2018-06-12T21:19:27.977Z,15.90
2018-06-12T21:21:56.934Z,15.90
2018-06-12T21:24:25.861Z,15.80
2018-06-12T21:26:54.957Z,15.70
2018-06-12T21:29:24.009Z,15.70
2018-06-12T21:31:52.938Z,15.70
2018-06-12T21:34:21.960Z,15.70
2018-06-12T21:36:50.909Z,15.60
2018-06-12T21:39:19.890Z,15.60
2018-06-12T21:41:49.116Z,15.50
2018-06-12T21:44:18.344Z,15.40
2018-06-12T21:46:47.337Z,15.40
2018-06-12T21:49:16.341Z,15.30
2018-06-12T21:51:45.369Z,15.30
2018-06-12T21:54:14.445Z,15.30
2018-06-12T21:56:43.679Z,15.30
2018-06-12T22:01:41.478Z,15.30
2018-06-12T22:04:10.462Z,15.30
2018-06-12T22:06:39.372Z,15.30
2018-06-12T22:11:36.974Z,15.20
2018-06-12T22:14:05.940Z,15.20
2018-06-12T22:16:34.922Z,15.20
2018-06-12T22:19:03.848Z,15.20
2018-06-12T22:21:33.120Z,15.20
2018-06-12T22:24:02.101Z,15.20
2018-06-12T22:26:31.081Z,15.20
2018-06-12T22:29:00.117Z,15.10
2018-06-12T22:31:29.113Z,15.10
2018-06-12T22:33:58.068Z,15.10
2018-06-12T22:36:27.009Z,15.10
2018-06-12T22:38:55.948Z,15.10
2018-06-12T22:41:24.873Z,15.10
2018-06-12T22:43:53.803Z,15.10
2018-06-12T22:46:22.737Z,15.10
2018-06-12T22:48:51.709Z,15.00
2018-06-12T22:51:20.697Z,15.00
2018-06-12T22:53:49.577Z,15.00
2018-06-12T22:56:18.617Z,15.00
2018-06-12T22:58:47.552Z,14.90
2018-06-12T23:01:16.569Z,14.90
2018-06-12T23:03:45.485Z,14.90
2018-06-12T23:06:14.506Z,14.90
2018-06-12T23:08:43.441Z,14.90
2018-06-12T23:11:12.394Z,14.90
2018-06-12T23:13:41.335Z,14.90
2018-06-12T23:16:10.295Z,14.90
2018-06-12T23:18:39.237Z,14.90
2018-06-12T23:21:18.314Z,14.80
2018-06-12T23:23:47.337Z,14.80
2018-06-12T23:26:16.350Z,14.90
2018-06-12T23:28:45.287Z,14.90
2018-06-12T23:31:14.239Z,14.90
2018-06-12T23:33:43.197Z,14.90
2018-06-12T23:36:12.170Z,14.90
2018-06-12T23:38:41.137Z,14.90
2018-06-12T23:41:10.068Z,14.90
2018-06-12T23:43:39.041Z,14.90
2018-06-12T23:46:08.037Z,14.90
2018-06-12T23:48:36.995Z,14.90
2018-06-12T23:51:06.086Z,15.00
2018-06-12T23:53:35.041Z,14.90
2018-06-12T23:56:04.238Z,15.00
2018-06-12T23:58:33.201Z,14.90
